NY/NJ Local METAR Reports

No Warnings, Watches, or Advisories
KNYC - NYC/Central Park, NY, USA
Distance from station: NE 4mi, 7km
Updated: 06/18/2021 3:51pm
Clear
Clear
 Wind from W
Wind: W 9 mph , 15 km/h
Temperature: 82°F , 28°C
Dew Point: 50°F , 10°C
Humidity: 32%
Barometer: 29.96 inHg , 1014.6 hPa
Clouds: Clear
Visibility: 10 miles , 16 km
2021/06/18 19:51 KNYC 181951Z AUTO 26008KT 200V300 10SM CLR 28/10 A2996 RMK AO2 SLP135 T02780100
KEWR - Newark, NJ, USA
Distance from station: WSW 8mi, 13km
Updated: 06/18/2021 3:51pm
Mostly cloudy
Mostly cloudy
 Wind from SW
Wind: SW 18 mph , 30 km/h, Gust: 24 mph , 39 km/h
Temperature: 86°F , 30°C
Dew Point: 48°F , 9°C
Humidity: 27%
Barometer: 29.93 inHg , 1013.5 hPa
Clouds: Mostly cloudy
Visibility: 10 miles , 16 km
Cloud details: Mostly cloudy 25000 ft
2021/06/18 19:51 KEWR 181951Z 23016G21KT 10SM BKN250 30/09 A2993 RMK AO2 SLP133 T03000094
 
KLGA - NYC/La Guardia, NY, USA
Distance from station: ENE 8mi, 13km
Updated: 06/18/2021 3:51pm
Mostly cloudy
Mostly cloudy
 Wind from S
Wind: S 14 mph , 22 km/h, Gust: 22 mph , 35 km/h
Temperature: 84°F , 29°C
Dew Point: 52°F , 11°C
Humidity: 33%
Barometer: 29.92 inHg , 1013.2 hPa
Clouds: Mostly cloudy
Visibility: 10 miles , 16 km
Cloud details: Mostly cloudy 25000 ft
2021/06/18 19:51 KLGA 181951Z 17012G19KT 10SM BKN250 29/11 A2992 RMK AO2 SLP132 T02890106
KTEB - Teterboro, NJ, USA
Distance from station: N 9mi, 14km
Updated: 06/18/2021 3:51pm
Clear
Clear
 Wind from W
Wind: W 16 mph , 26 km/h, Gust: 24 mph , 39 km/h
Temperature: 84°F , 29°C
Dew Point: 50°F , 10°C
Humidity: 31%
Barometer: 29.91 inHg , 1012.9 hPa
Clouds: Clear
Visibility: 10 miles , 16 km
2021/06/18 19:51 KTEB 181951Z 27014G21KT 10SM CLR 29/10 A2991 RMK AO2 SLP129 T02890100
 
KJFK - NYC/Jfk Arpt, NY, USA
Distance from station: ESE 16mi, 25km
Updated: 06/18/2021 3:51pm
Mostly cloudy
Mostly cloudy
 Wind from S
Wind: S 21 mph , 33 km/h
Temperature: 79°F , 26°C
Dew Point: 57°F , 14°C
Humidity: 48%
Barometer: 29.96 inHg , 1014.6 hPa
Clouds: Mostly cloudy
Visibility: 10 miles , 16 km
Cloud details: Few Clouds 7000 ft
Mostly cloudy 25000 ft
2021/06/18 19:51 KJFK 181951Z 18018KT 10SM FEW070 BKN250 26/14 A2996 RMK AO2 PK WND 19026/1931 SLP145 T02560139
KCDW - Caldwell, NJ, USA
Distance from station: NW 16mi, 26km
Updated: 06/18/2021 3:53pm
Clear
Clear
 Wind from SW
Wind: SW 8 mph , 13 km/h
Temperature: 84°F , 29°C
Dew Point: 48°F , 9°C
Humidity: 29%
Barometer: 29.93 inHg , 1013.5 hPa
Clouds: Clear
Visibility: 10 miles , 16 km
2021/06/18 19:53 KCDW 181953Z 22007KT 180V260 10SM CLR 29/09 A2993 RMK AO2 SLP139 T02940089
 
KMMU - Morristown Muni, NJ, USA
Distance from station: W 20mi, 33km
Updated: 06/18/2021 4:45pm
Mostly cloudy
Mostly cloudy
 Wind from WSW
Wind: WSW 13 mph , 20 km/h, Gust: 21 mph , 33 km/h
Temperature: 84°F , 29°C
Dew Point: 55°F , 13°C
Humidity: 37%
Barometer: 29.92 inHg , 1013.2 hPa
Clouds: Mostly cloudy
Visibility: 10 miles , 16 km
Cloud details: Mostly cloudy 25000 ft
2021/06/18 20:45 KMMU 182045Z 24011G18KT 10SM BKN250 29/13 A2992
KHPN - White Plains, NY, USA
Distance from station: NE 28mi, 46km
Updated: 06/18/2021 3:56pm
Clear
Clear
 
Temperature: 82°F , 28°C
Dew Point: 48°F , 9°C
Humidity: 30%
Barometer: 29.93 inHg , 1013.5 hPa
Clouds: Clear
Visibility: 10 miles , 16 km
2021/06/18 19:56 KHPN 181956Z 10SM CLR 28/09 A2993 RMK AO2 SLP131 T02780089
 
KFRG - Farmingdale, NY, USA
Distance from station: E 32mi, 52km
Updated: 06/18/2021 3:53pm
Clear
Clear
 Wind from SW
Wind: SW 17 mph , 28 km/h, Gust: 26 mph , 43 km/h
Temperature: 79°F , 26°C
Dew Point: 54°F , 12°C
Humidity: 42%
Barometer: 29.96 inHg , 1014.6 hPa
Clouds: Clear
Visibility: 10 miles , 16 km
2021/06/18 19:53 KFRG 181953Z 22015G23KT 10SM CLR 26/12 A2996 RMK AO2 SLP144 T02610122
KSMQ - Somerville, NJ, USA
Distance from station: WSW 34mi, 55km
Updated: 06/18/2021 3:53pm
Clear
Clear
 Wind from varies
Wind: varies 5 mph , 7 km/h
Temperature: 84°F , 29°C
Dew Point: 54°F , 12°C
Humidity: 35%
Barometer: 29.92 inHg , 1013.2 hPa
Clouds: Clear
Visibility: 10 miles , 16 km
2021/06/18 19:53 KSMQ 181953Z AUTO VRB04KT 10SM CLR 29/12 A2992 RMK AO2 SLP130 T02890117
 
KBLM - Belmar/Farmdale, NJ, USA
Distance from station: S 40mi, 64km
Updated: 06/18/2021 3:56pm
Clear
Clear
 Wind from WSW
Wind: WSW 10 mph , 17 km/h, Gust: 18 mph , 30 km/h
Temperature: 84°F , 29°C
Dew Point: 50°F , 10°C
Humidity: 31%
Barometer: 29.97 inHg , 1014.9 hPa
Clouds: Clear
Visibility: 10 miles , 16 km
2021/06/18 19:56 KBLM 181956Z AUTO 25009G16KT 10SM CLR 29/10 A2997 RMK AO2 SLP148 T02890100 PNO $
K12N - Andover, NJ, USA
Distance from station: WNW 41mi, 67km
Updated: 06/18/2021 3:54pm

 Wind from SW
Wind: SW 14 mph , 22 km/h
Temperature: 82°F , 28°C
Dew Point: 52°F , 11°C
Humidity: 35%
Barometer: 29.94 inHg , 1013.9 hPa
2021/06/18 19:54 K12N 181954Z AUTO 22012KT 28/11 A2994 RMK AO1 SLP133 T02780106
 
KFWN - Sussex, NJ, USA
Distance from station: NW 45mi, 72km
Updated: 06/18/2021 3:53pm
Clear
Clear
 Wind from varies
Wind: varies 7 mph , 11 km/h
Temperature: 82°F , 28°C
Dew Point: 54°F , 12°C
Humidity: 37%
Barometer: 29.92 inHg , 1013.2 hPa
Clouds: Clear
Visibility: 10 miles , 16 km
2021/06/18 19:53 KFWN 181953Z AUTO VRB06KT 10SM CLR 28/12 A2992 RMK AO2 SLP130 T02830117
KISP - Islip, NY, USA
Distance from station: E 49mi, 79km
Updated: 06/18/2021 3:56pm
Mostly cloudy
Mostly cloudy
 Wind from SSW
Wind: SSW 20 mph , 31 km/h, Gust: 26 mph , 43 km/h
Temperature: 79°F , 26°C
Dew Point: 54°F , 12°C
Humidity: 42%
Barometer: 29.96 inHg , 1014.6 hPa
Clouds: Mostly cloudy
Visibility: 10 miles , 16 km
Cloud details: Few Clouds 7000 ft
Mostly cloudy 25000 ft
2021/06/18 19:56 KISP 181956Z 21017G23KT 10SM FEW070 BKN250 26/12 A2996 RMK AO2 SLP144 T02560117